| time (UTC) | temp F | wind direction | speed MPH | gust MPH | rain 1hr in | rain 24hr in | rain mn in | humidity % | barometer mb |
| 20260508013304 | 55 | 173 | 0.0 | 2.0 | 0.00 | 0.23 | 0.12 | 71 | 1009.0 |
| 20260508012804 | 55 | 172 | 1.0 | 3.0 | 0.00 | 0.23 | 0.12 | 70 | 1008.9 |
| 20260508012307 | 55 | 136 | 1.0 | 6.0 | 0.00 | 0.23 | 0.12 | 68 | 1008.8 |
| 20260508011804 | 54 | 176 | 1.0 | 3.0 | 0.00 | 0.23 | 0.12 | 66 | 1008.9 |
| 20260508011304 | 54 | 206 | 1.0 | 3.0 | 0.00 | 0.23 | 0.12 | 61 | 1008.9 |
| 20260508010804 | 54 | 242 | 1.0 | 3.0 | 0.00 | 0.23 | 0.12 | 60 | 1008.9 |
| 20260508010305 | 55 | 68 | 0.0 | 2.0 | 0.00 | 0.23 | 0.12 | 58 | 1008.8 |
| 20260508005804 | 55 | 67 | 0.0 | 0.0 | 0.00 | 0.23 | 0.12 | 56 | 1008.7 |
| 20260508005306 | 55 | 67 | 0.0 | 0.0 | 0.00 | 0.23 | 0.12 | 54 | 1008.6 |
| 20260508004804 | 56 | 67 | 0.0 | 0.0 | 0.00 | 0.23 | 0.12 | 54 | 1008.6 |
| 20260508004305 | 56 | 67 | 0.0 | 0.0 | 0.00 | 0.23 | 0.12 | 52 | 1008.4 |
| 20260508003804 | 57 | 67 | 0.0 | 0.0 | 0.00 | 0.23 | 0.12 | 53 | 1008.5 |
| 20260508002804 | 58 | 67 | 0.0 | 0.0 | 0.00 | 0.23 | 0.12 | 54 | 1008.3 |
| 20260508002307 | 58 | 67 | 0.0 | 0.0 | 0.00 | 0.23 | 0.12 | 55 | 1008.3 |
| 20260508000804 | 59 | 67 | 0.0 | 0.0 | 0.00 | 0.23 | 0.12 | 53 | 1008.0 |
| 20260508000305 | 60 | 67 | 0.0 | 0.0 | 0.00 | 0.23 | 0.12 | 52 | 1008.0 |
| 20260507235805 | 60 | 67 | 0.0 | 0.0 | 0.00 | 0.23 | 0.12 | 50 | 1007.9 |
| 20260507235306 | 60 | 67 | 0.0 | 0.0 | 0.00 | 0.23 | 0.12 | 50 | 1007.9 |
| 20260507234805 | 61 | 67 | 0.0 | 0.0 | 0.00 | 0.23 | 0.12 | 52 | 1007.9 |
| 20260507234304 | 61 | 67 | 0.0 | 0.0 | 0.00 | 0.23 | 0.12 | 50 | 1007.8 |
| 20260507232805 | 62 | 67 | 0.0 | 0.0 | 0.00 | 0.23 | 0.12 | 47 | 1007.7 |
| 20260507232306 | 62 | 67 | 0.0 | 0.0 | 0.00 | 0.23 | 0.12 | 48 | 1007.7 |
| 20260507231805 | 63 | 67 | 0.0 | 0.0 | 0.00 | 0.23 | 0.12 | 46 | 1007.6 |
| 20260507230804 | 63 | 67 | 0.0 | 0.0 | 0.00 | 0.23 | 0.12 | 44 | 1007.5 |
| 20260507230306 | 64 | 67 | 0.0 | 0.0 | 0.00 | 0.23 | 0.12 | 45 | 1007.5 |
| 20260507225804 | 64 | 67 | 0.0 | 1.0 | 0.00 | 0.23 | 0.12 | 43 | 1007.5 |
| 20260507225306 | 64 | 67 | 0.0 | 0.0 | 0.00 | 0.23 | 0.12 | 40 | 1007.6 |
| 20260507224804 | 65 | 66 | 0.0 | 1.0 | 0.00 | 0.23 | 0.12 | 39 | 1007.5 |
| 20260507224305 | 65 | 74 | 1.0 | 3.0 | 0.00 | 0.23 | 0.12 | 38 | 1007.5 |
| 20260507223806 | 65 | 59 | 1.0 | 3.0 | 0.00 | 0.23 | 0.12 | 41 | 1007.5 |
| 20260507223304 | 65 | 310 | 1.0 | 2.0 | 0.00 | 0.23 | 0.12 | 37 | 1007.6 |
| 20260507222804 | 65 | 311 | 1.0 | 3.0 | 0.00 | 0.23 | 0.12 | 35 | 1007.5 |
| 20260507222306 | 65 | 41 | 1.0 | 3.0 | 0.00 | 0.23 | 0.12 | 37 | 1007.6 |
| 20260507221804 | 65 | 294 | 1.0 | 2.0 | 0.00 | 0.23 | 0.12 | 36 | 1007.6 |
| 20260507221303 | 65 | 265 | 1.0 | 3.0 | 0.00 | 0.23 | 0.12 | 35 | 1007.6 |
| 20260507215804 | 65 | 340 | 1.0 | 3.0 | 0.00 | 0.23 | 0.12 | 35 | 1007.6 |
| 20260507215307 | 66 | 196 | 1.0 | 3.0 | 0.00 | 0.23 | 0.12 | 34 | 1007.6 |
| 20260507214804 | 66 | 292 | 0.0 | 1.0 | 0.00 | 0.23 | 0.12 | 35 | 1007.7 |
| 20260507214305 | 66 | 306 | 1.0 | 5.0 | 0.00 | 0.23 | 0.12 | 32 | 1007.8 |
| 20260507213803 | 66 | 313 | 1.0 | 3.0 | 0.00 | 0.23 | 0.12 | 36 | 1007.8 |
| 20260507213304 | 66 | 310 | 2.0 | 7.0 | 0.00 | 0.23 | 0.12 | 33 | 1007.8 |
| 20260507212804 | 67 | 309 | 2.0 | 3.0 | 0.00 | 0.23 | 0.12 | 35 | 1007.7 |
| 20260507212307 | 67 | 309 | 2.0 | 3.0 | 0.00 | 0.23 | 0.12 | 34 | 1007.6 |
| 20260507211804 | 66 | 354 | 2.0 | 3.0 | 0.00 | 0.23 | 0.12 | 33 | 1007.6 |
| 20260507211304 | 67 | 309 | 1.0 | 3.0 | 0.00 | 0.23 | 0.12 | 33 | 1007.6 |
| 20260507210304 | 68 | 337 | 1.0 | 6.0 | 0.00 | 0.23 | 0.12 | 36 | 1007.5 |
| 20260507205804 | 68 | 342 | 1.0 | 3.0 | 0.00 | 0.23 | 0.12 | 34 | 1007.5 |
| 20260507205306 | 67 | 231 | 1.0 | 3.0 | 0.00 | 0.23 | 0.12 | 34 | 1007.5 |
| 20260507204803 | 67 | 249 | 1.0 | 5.0 | 0.00 | 0.23 | 0.12 | 36 | 1007.5 |
| 20260507204304 | 67 | 355 | 2.0 | 5.0 | 0.00 | 0.23 | 0.12 | 36 | 1007.5 |
| 20260507203804 | 67 | 326 | 1.0 | 3.0 | 0.00 | 0.23 | 0.12 | 38 | 1007.5 |
| 20260507202804 | 66 | 310 | 1.0 | 5.0 | 0.00 | 0.23 | 0.12 | 34 | 1007.5 |
| 20260507202307 | 66 | 319 | 1.0 | 7.0 | 0.00 | 0.23 | 0.12 | 33 | 1007.6 |
| 20260507201804 | 67 | 326 | 3.0 | 7.0 | 0.00 | 0.23 | 0.12 | 35 | 1007.6 |
| 20260507201303 | 67 | 329 | 2.0 | 7.0 | 0.00 | 0.23 | 0.12 | 35 | 1007.7 |
| 20260507200804 | 67 | 306 | 1.0 | 5.0 | 0.00 | 0.23 | 0.12 | 34 | 1007.7 |
| 20260507195804 | 67 | 351 | 2.0 | 6.0 | 0.00 | 0.23 | 0.12 | 40 | 1007.8 |
| 20260507195306 | 67 | 289 | 2.0 | 5.0 | 0.00 | 0.23 | 0.12 | 37 | 1007.8 |
| 20260507194804 | 67 | 319 | 3.0 | 6.0 | 0.00 | 0.23 | 0.12 | 38 | 1007.9 |
| 20260507194305 | 67 | 37 | 2.0 | 3.0 | 0.00 | 0.23 | 0.12 | 36 | 1007.9 |
| 20260507193805 | 66 | 261 | 2.0 | 6.0 | 0.00 | 0.23 | 0.12 | 39 | 1008.0 |
| 20260507192805 | 66 | 47 | 2.0 | 5.0 | 0.00 | 0.23 | 0.12 | 39 | 1008.0 |
| 20260507192306 | 66 | 284 | 2.0 | 6.0 | 0.00 | 0.23 | 0.12 | 37 | 1008.1 |
| 20260507191304 | 66 | 19 | 5.0 | 10.0 | 0.00 | 0.23 | 0.12 | 36 | 1008.4 |
| 20260507190304 | 66 | 16 | 2.0 | 7.0 | 0.00 | 0.23 | 0.12 | 39 | 1008.4 |
| 20260507185804 | 66 | 271 | 1.0 | 2.0 | 0.00 | 0.23 | 0.12 | 40 | 1008.4 |
| 20260507185305 | 66 | 323 | 2.0 | 5.0 | 0.00 | 0.23 | 0.12 | 43 | 1008.5 |
| 20260507184804 | 66 | 18 | 1.0 | 3.0 | 0.00 | 0.23 | 0.12 | 42 | 1008.4 |
| 20260507184304 | 66 | 275 | 2.0 | 8.0 | 0.00 | 0.23 | 0.12 | 41 | 1008.6 |
| 20260507183805 | 66 | 248 | 3.0 | 7.0 | 0.00 | 0.23 | 0.12 | 41 | 1008.6 |
| 20260507182804 | 66 | 30 | 2.0 | 7.0 | 0.00 | 0.23 | 0.12 | 43 | 1008.8 |
| 20260507181304 | 64 | 285 | 2.0 | 5.0 | 0.00 | 0.23 | 0.12 | 44 | 1008.9 |
| 20260507180305 | 64 | 308 | 2.0 | 8.0 | 0.00 | 0.23 | 0.12 | 45 | 1009.0 |
| 20260507175804 | 64 | 326 | 3.0 | 10.0 | 0.00 | 0.23 | 0.12 | 40 | 1009.1 |
| 20260507175307 | 64 | 200 | 1.0 | 7.0 | 0.00 | 0.23 | 0.12 | 48 | 1009.1 |
| 20260507174304 | 64 | 303 | 3.0 | 9.0 | 0.00 | 0.23 | 0.12 | 43 | 1009.3 |
| 20260507173804 | 64 | 35 | 1.0 | 3.0 | 0.00 | 0.23 | 0.12 | 48 | 1009.4 |
| 20260507172804 | 63 | 330 | 3.0 | 6.0 | 0.00 | 0.23 | 0.12 | 45 | 1009.8 |
| 20260507172307 | 63 | 330 | 2.0 | 8.0 | 0.00 | 0.23 | 0.12 | 46 | 1009.8 |
| 20260507171304 | 63 | 196 | 2.0 | 5.0 | 0.00 | 0.23 | 0.12 | 47 | 1009.9 |
| 20260507165805 | 63 | 319 | 3.0 | 8.0 | 0.00 | 0.23 | 0.12 | 44 | 1010.1 |
| 20260507165306 | 63 | 280 | 2.0 | 5.0 | 0.00 | 0.23 | 0.12 | 45 | 1010.1 |
| 20260507164804 | 63 | 356 | 3.0 | 9.0 | 0.00 | 0.23 | 0.12 | 46 | 1010.2 |
| 20260507164304 | 63 | 327 | 3.0 | 7.0 | 0.00 | 0.23 | 0.12 | 49 | 1010.2 |
| 20260507163804 | 62 | 260 | 2.0 | 3.0 | 0.00 | 0.23 | 0.12 | 51 | 1010.3 |
| 20260507163304 | 62 | 13 | 2.0 | 7.0 | 0.00 | 0.23 | 0.12 | 50 | 1010.4 |
| 20260507162306 | 61 | 8 | 1.0 | 7.0 | 0.00 | 0.24 | 0.12 | 55 | 1010.4 |
| 20260507161804 | 62 | 11 | 2.0 | 5.0 | 0.00 | 0.24 | 0.12 | 51 | 1010.6 |
| 20260507161306 | 61 | 81 | 2.0 | 5.0 | 0.00 | 0.25 | 0.12 | 55 | 1010.5 |
| 20260507160804 | 61 | 16 | 2.0 | 5.0 | 0.00 | 0.25 | 0.12 | 53 | 1010.5 |
| 20260507160304 | 61 | 324 | 2.0 | 7.0 | 0.00 | 0.25 | 0.12 | 56 | 1010.6 |
| 20260507155804 | 60 | 306 | 2.0 | 6.0 | 0.00 | 0.26 | 0.12 | 54 | 1010.7 |
| 20260507155306 | 60 | 338 | 2.0 | 6.0 | 0.00 | 0.26 | 0.12 | 57 | 1010.8 |
| 20260507154804 | 60 | 349 | 2.0 | 6.0 | 0.00 | 0.26 | 0.12 | 60 | 1010.9 |
| 20260507154305 | 59 | 295 | 2.0 | 3.0 | 0.00 | 0.27 | 0.12 | 61 | 1011.0 |
| 20260507153304 | 58 | 274 | 2.0 | 7.0 | 0.00 | 0.27 | 0.12 | 61 | 1011.2 |
| 20260507152804 | 58 | 307 | 3.0 | 10.0 | 0.00 | 0.28 | 0.12 | 61 | 1011.1 |
| 20260507152306 | 58 | 152 | 1.0 | 5.0 | 0.00 | 0.28 | 0.12 | 64 | 1011.5 |
| 20260507151804 | 58 | 317 | 1.0 | 3.0 | 0.00 | 0.28 | 0.12 | 65 | 1011.5 |
| 20260507151306 | 57 | 279 | 1.0 | 5.0 | 0.00 | 0.28 | 0.12 | 64 | 1011.6 |
| 20260507150804 | 57 | 344 | 2.0 | 3.0 | 0.00 | 0.28 | 0.12 | 64 | 1011.5 |
| 20260507150304 | 57 | 10 | 1.0 | 3.0 | 0.00 | 0.28 | 0.12 | 67 | 1011.5 |
| 20260507145804 | 57 | 330 | 3.0 | 7.0 | 0.00 | 0.28 | 0.12 | 65 | 1011.4 |
| 20260507145306 | 57 | 256 | 2.0 | 5.0 | 0.00 | 0.28 | 0.12 | 66 | 1011.6 |
| 20260507144804 | 56 | 300 | 2.0 | 3.0 | 0.00 | 0.28 | 0.12 | 69 | 1011.6 |
| 20260507144304 | 56 | 305 | 2.0 | 5.0 | 0.00 | 0.28 | 0.12 | 70 | 1011.7 |
| 20260507143804 | 56 | 271 | 1.0 | 2.0 | 0.00 | 0.28 | 0.12 | 74 | 1011.7 |
| 20260507143304 | 55 | 284 | 2.0 | 3.0 | 0.00 | 0.28 | 0.12 | 70 | 1012.0 |
| 20260507142307 | 56 | 315 | 2.0 | 5.0 | 0.00 | 0.28 | 0.12 | 72 | 1011.9 |
| 20260507141804 | 56 | 280 | 2.0 | 5.0 | 0.00 | 0.28 | 0.12 | 75 | 1011.9 |
| 20260507141304 | 55 | 324 | 2.0 | 3.0 | 0.00 | 0.28 | 0.12 | 77 | 1011.9 |
| 20260507140804 | 55 | 331 | 1.0 | 2.0 | 0.00 | 0.28 | 0.12 | 78 | 1011.9 |
| 20260507140305 | 55 | 317 | 1.0 | 5.0 | 0.00 | 0.28 | 0.12 | 77 | 1011.9 |
| 20260507135306 | 55 | 233 | 2.0 | 6.0 | 0.00 | 0.28 | 0.12 | 79 | 1011.9 |
| 20260507134804 | 54 | 342 | 1.0 | 3.0 | 0.00 | 0.28 | 0.12 | 80 | 1011.9 |
| 20260507134304 | 54 | 307 | 2.0 | 3.0 | 0.00 | 0.28 | 0.12 | 81 | 1012.0 |
| 20260507133804 | 53 | 333 | 2.0 | 5.0 | 0.00 | 0.28 | 0.12 | 83 | 1012.0 |
| 20260507133304 | 53 | 280 | 1.0 | 3.0 | 0.00 | 0.28 | 0.12 | 84 | 1012.0 |
| 20260507132307 | 52 | 299 | 1.0 | 3.0 | 0.00 | 0.28 | 0.12 | 85 | 1011.8 |
| 20260507131804 | 52 | 342 | 1.0 | 5.0 | 0.00 | 0.28 | 0.12 | 86 | 1011.8 |
| 20260507131304 | 52 | 326 | 0.0 | 2.0 | 0.00 | 0.28 | 0.12 | 86 | 1011.8 |
| 20260507130804 | 51 | 311 | 1.0 | 2.0 | 0.00 | 0.28 | 0.12 | 86 | 1011.8 |
| 20260507130304 | 51 | 321 | 2.0 | 6.0 | 0.00 | 0.28 | 0.12 | 87 | 1012.0 |
| 20260507125804 | 51 | 320 | 1.0 | 3.0 | 0.00 | 0.28 | 0.12 | 87 | 1011.9 |
| 20260507124805 | 51 | 315 | 0.0 | 3.0 | 0.00 | 0.28 | 0.12 | 87 | 1011.9 |
| 20260507121804 | 51 | 319 | 1.0 | 3.0 | 0.00 | 0.28 | 0.12 | 88 | 1011.8 |
| 20260507121304 | 51 | 314 | 0.0 | 5.0 | 0.00 | 0.28 | 0.12 | 88 | 1011.8 |
| 20260507120804 | 51 | 306 | 1.0 | 3.0 | 0.00 | 0.28 | 0.12 | 88 | 1011.9 |
| 20260507120304 | 51 | 295 | 0.0 | 2.0 | 0.00 | 0.28 | 0.12 | 88 | 1011.9 |
| 20260507114803 | 51 | 265 | 1.0 | 2.0 | 0.00 | 0.28 | 0.12 | 88 | 1011.8 |
| 20260507114303 | 51 | 280 | 0.0 | 1.0 | 0.00 | 0.28 | 0.12 | 88 | 1011.7 |
| 20260507113304 | 51 | 281 | 0.0 | 1.0 | 0.00 | 0.28 | 0.12 | 88 | 1011.5 |
| 20260507112803 | 51 | 280 | 0.0 | 1.0 | 0.00 | 0.28 | 0.12 | 89 | 1011.5 |
| 20260507112306 | 51 | 281 | 0.0 | 1.0 | 0.00 | 0.28 | 0.12 | 89 | 1011.5 |
| 20260507111803 | 51 | 281 | 0.0 | 1.0 | 0.00 | 0.28 | 0.12 | 89 | 1011.4 |
| 20260507110304 | 51 | 286 | 0.0 | 1.0 | 0.00 | 0.28 | 0.12 | 88 | 1011.2 |
| 20260507105306 | 51 | 285 | 0.0 | 0.0 | 0.00 | 0.28 | 0.12 | 89 | 1010.9 |
| 20260507104803 | 51 | 285 | 0.0 | 0.0 | 0.00 | 0.28 | 0.12 | 89 | 1011.0 |
| 20260507104304 | 51 | 285 | 0.0 | 0.0 | 0.00 | 0.28 | 0.12 | 89 | 1011.0 |
| 20260507103804 | 50 | 285 | 0.0 | 0.0 | 0.00 | 0.28 | 0.12 | 89 | 1011.0 |
| 20260507103305 | 50 | 285 | 0.0 | 0.0 | 0.00 | 0.28 | 0.12 | 88 | 1010.9 |
| 20260507102803 | 50 | 285 | 0.0 | 0.0 | 0.00 | 0.28 | 0.12 | 88 | 1010.7 |
| 20260507102306 | 50 | 285 | 0.0 | 0.0 | 0.00 | 0.28 | 0.12 | 88 | 1010.7 |
| 20260507101806 | 50 | 285 | 0.0 | 0.0 | 0.00 | 0.28 | 0.12 | 88 | 1010.5 |
| 20260507101304 | 50 | 285 | 0.0 | 0.0 | 0.00 | 0.28 | 0.12 | 88 | 1010.5 |
| 20260507100804 | 50 | 285 | 0.0 | 0.0 | 0.00 | 0.28 | 0.12 | 88 | 1010.3 |
| 20260507095804 | 50 | 285 | 0.0 | 0.0 | 0.00 | 0.28 | 0.12 | 88 | 1010.4 |
| 20260507095306 | 50 | 285 | 0.0 | 1.0 | 0.00 | 0.28 | 0.12 | 88 | 1010.5 |
| 20260507094803 | 50 | 286 | 0.0 | 0.0 | 0.00 | 0.28 | 0.12 | 88 | 1010.4 |
| 20260507094305 | 50 | 286 | 0.0 | 0.0 | 0.00 | 0.28 | 0.12 | 88 | 1010.4 |
| 20260507093804 | 50 | 286 | 0.0 | 0.0 | 0.01 | 0.28 | 0.12 | 88 | 1010.3 |
| 20260507091804 | 50 | 286 | 0.0 | 0.0 | 0.01 | 0.28 | 0.12 | 88 | 1010.2 |
| 20260507091304 | 50 | 286 | 0.0 | 0.0 | 0.01 | 0.28 | 0.12 | 88 | 1010.1 |
| 20260507090804 | 50 | 286 | 0.0 | 1.0 | 0.01 | 0.28 | 0.12 | 88 | 1010.2 |
| 20260507090304 | 50 | 294 | 0.0 | 0.0 | 0.01 | 0.28 | 0.12 | 88 | 1010.1 |
| 20260507085804 | 50 | 294 | 0.0 | 2.0 | 0.01 | 0.28 | 0.12 | 88 | 1010.0 |
| 20260507085306 | 50 | 294 | 0.0 | 3.0 | 0.01 | 0.28 | 0.12 | 88 | 1010.0 |
| 20260507084804 | 50 | 298 | 0.0 | 1.0 | 0.02 | 0.28 | 0.12 | 88 | 1010.0 |
| 20260507084304 | 50 | 298 | 0.0 | 2.0 | 0.02 | 0.28 | 0.12 | 88 | 1010.0 |
| 20260507083804 | 50 | 298 | 0.0 | 1.0 | 0.02 | 0.27 | 0.11 | 88 | 1010.0 |
| 20260507083304 | 50 | 297 | 0.0 | 2.0 | 0.02 | 0.27 | 0.11 | 88 | 1009.9 |
| 20260507082804 | 51 | 323 | 0.0 | 2.0 | 0.02 | 0.27 | 0.11 | 88 | 1010.0 |
| 20260507082306 | 51 | 328 | 0.0 | 2.0 | 0.03 | 0.27 | 0.11 | 88 | 1009.9 |
| 20260507081804 | 51 | 328 | 0.0 | 2.0 | 0.03 | 0.27 | 0.11 | 88 | 1009.9 |
| 20260507081304 | 51 | 330 | 0.0 | 2.0 | 0.03 | 0.27 | 0.11 | 88 | 1010.1 |
| 20260507080803 | 51 | 317 | 2.0 | 5.0 | 0.03 | 0.27 | 0.11 | 88 | 1010.2 |
| 20260507080305 | 51 | 294 | 0.0 | 2.0 | 0.03 | 0.27 | 0.11 | 88 | 1010.1 |
| 20260507075307 | 51 | 310 | 0.0 | 3.0 | 0.03 | 0.27 | 0.11 | 88 | 1010.4 |
| 20260507074804 | 51 | 315 | 1.0 | 3.0 | 0.02 | 0.26 | 0.10 | 88 | 1010.5 |
| 20260507073304 | 51 | 316 | 1.0 | 5.0 | 0.02 | 0.25 | 0.09 | 88 | 1010.2 |
| 20260507072804 | 51 | 312 | 1.0 | 3.0 | 0.03 | 0.25 | 0.09 | 88 | 1010.5 |
| 20260507072306 | 51 | 306 | 0.0 | 3.0 | 0.03 | 0.24 | 0.08 | 88 | 1010.5 |
| 20260507070804 | 52 | 323 | 1.0 | 5.0 | 0.03 | 0.24 | 0.08 | 88 | 1010.2 |
| 20260507070303 | 52 | 313 | 1.0 | 6.0 | 0.03 | 0.24 | 0.08 | 88 | 1010.2 |
| 20260507065804 | 52 | 317 | 2.0 | 6.0 | 0.04 | 0.24 | 0.08 | 88 | 1010.1 |
| 20260507065306 | 52 | 322 | 2.0 | 6.0 | 0.04 | 0.24 | 0.08 | 88 | 1010.0 |
| 20260507064804 | 52 | 357 | 3.0 | 9.0 | 0.04 | 0.24 | 0.08 | 88 | 1010.1 |
| 20260507064304 | 52 | 332 | 1.0 | 3.0 | 0.04 | 0.23 | 0.07 | 88 | 1010.0 |
| 20260507063803 | 52 | 325 | 0.0 | 1.0 | 0.05 | 0.23 | 0.07 | 88 | 1010.3 |
| 20260507063304 | 52 | 327 | 0.0 | 1.0 | 0.06 | 0.23 | 0.07 | 88 | 1009.9 |
| 20260507062306 | 52 | 254 | 0.0 | 2.0 | 0.05 | 0.21 | 0.05 | 88 | 1010.5 |
| 20260507061805 | 52 | 286 | 2.0 | 3.0 | 0.05 | 0.21 | 0.05 | 87 | 1010.1 |
| 20260507061303 | 52 | 308 | 1.0 | 3.0 | 0.05 | 0.21 | 0.05 | 87 | 1009.8 |
| 20260507060804 | 52 | 311 | 1.0 | 3.0 | 0.05 | 0.21 | 0.05 | 87 | 1009.7 |
| 20260507060304 | 53 | 311 | 1.0 | 3.0 | 0.05 | 0.21 | 0.05 | 87 | 1010.2 |
| 20260507055804 | 53 | 321 | 2.0 | 3.0 | 0.04 | 0.20 | 0.04 | 86 | 1010.1 |
| 20260507055306 | 53 | 309 | 1.0 | 3.0 | 0.04 | 0.20 | 0.04 | 86 | 1010.0 |
| 20260507054804 | 54 | 328 | 1.0 | 5.0 | 0.04 | 0.20 | 0.04 | 85 | 1009.7 |
| 20260507054305 | 54 | 246 | 0.0 | 2.0 | 0.03 | 0.19 | 0.03 | 85 | 1010.0 |
| 20260507053804 | 55 | 297 | 1.0 | 3.0 | 0.02 | 0.18 | 0.02 | 85 | 1010.6 |
| 20260507053304 | 55 | 277 | 1.0 | 5.0 | 0.01 | 0.17 | 0.01 | 85 | 1010.0 |
| 20260507052804 | 55 | 331 | 1.0 | 3.0 | 0.01 | 0.17 | 0.01 | 85 | 1009.8 |
| 20260507052306 | 56 | 355 | 1.0 | 2.0 | 0.00 | 0.16 | 0.00 | 85 | 1009.1 |
| 20260507051804 | 56 | 49 | 0.0 | 2.0 | 0.00 | 0.16 | 0.00 | 85 | 1008.9 |
| 20260507051305 | 56 | 308 | 1.0 | 3.0 | 0.00 | 0.16 | 0.00 | 85 | 1009.2 |
| 20260507050804 | 56 | 303 | 1.0 | 5.0 | 0.00 | 0.16 | 0.00 | 85 | 1009.2 |
| 20260507050304 | 56 | 293 | 2.0 | 5.0 | 0.00 | 0.16 | 0.00 | 86 | 1009.1 |
| 20260507045306 | 56 | 314 | 1.0 | 2.0 | 0.00 | 0.16 | 0.00 | 86 | 1008.9 |
| 20260507044804 | 56 | 309 | 0.0 | 2.0 | 0.00 | 0.16 | 0.00 | 86 | 1008.9 |
| 20260507044304 | 56 | 307 | 0.0 | 2.0 | 0.00 | 0.16 | 0.00 | 86 | 1008.9 |
| 20260507043304 | 56 | 300 | 0.0 | 3.0 | 0.00 | 0.16 | 0.00 | 86 | 1008.7 |
| 20260507042805 | 57 | 293 | 1.0 | 5.0 | 0.00 | 0.16 | 0.00 | 86 | 1009.1 |
| 20260507042306 | 57 | 322 | 1.0 | 2.0 | 0.00 | 0.16 | 0.00 | 86 | 1009.3 |
| 20260507041804 | 57 | 293 | 0.0 | 2.0 | 0.00 | 0.16 | 0.00 | 86 | 1009.3 |
| 20260507041304 | 57 | 294 | 1.0 | 7.0 | 0.00 | 0.16 | 0.00 | 86 | 1009.3 |
| 20260507040843 | 57 | 294 | 0.0 | 3.0 | 0.00 | 0.16 | 0.00 | 86 | 1009.2 |
| 20260507040303 | 58 | 315 | 1.0 | 3.0 | 0.00 | 0.16 | 0.00 | 86 | 1009.2 |
| 20260507035804 | 58 | 309 | 1.0 | 5.0 | 0.00 | 0.16 | 0.16 | 86 | 1009.1 |
| 20260507035306 | 59 | 0 | 1.0 | 3.0 | 0.00 | 0.16 | 0.16 | 85 | 1008.9 |
| 20260507034804 | 59 | 313 | 1.0 | 3.0 | 0.00 | 0.16 | 0.16 | 85 | 1008.9 |
| 20260507034304 | 60 | 304 | 0.0 | 2.0 | 0.00 | 0.16 | 0.16 | 85 | 1008.9 |
| 20260507033803 | 60 | 333 | 0.0 | 2.0 | 0.00 | 0.16 | 0.16 | 86 | 1009.0 |
| 20260507033303 | 61 | 333 | 1.0 | 5.0 | 0.00 | 0.16 | 0.16 | 85 | 1009.2 |
| 20260507032804 | 61 | 309 | 2.0 | 10.0 | 0.01 | 0.16 | 0.16 | 85 | 1008.8 |
| 20260507032306 | 62 | 316 | 1.0 | 2.0 | 0.01 | 0.16 | 0.16 | 86 | 1008.8 |
| 20260507031803 | 63 | 321 | 2.0 | 7.0 | 0.01 | 0.16 | 0.16 | 85 | 1008.8 |
| 20260507031305 | 64 | 325 | 3.0 | 12.0 | 0.02 | 0.16 | 0.16 | 86 | 1008.4 |
| 20260507030804 | 64 | 302 | 1.0 | 3.0 | 0.04 | 0.16 | 0.16 | 86 | 1008.4 |
| 20260507030304 | 64 | 266 | 0.0 | 1.0 | 0.05 | 0.16 | 0.16 | 86 | 1008.3 |
| 20260507025804 | 65 | 269 | 0.0 | 0.0 | 0.07 | 0.16 | 0.16 | 86 | 1008.3 |
| 20260507025306 | 65 | 269 | 0.0 | 2.0 | 0.10 | 0.16 | 0.16 | 86 | 1008.3 |
| 20260507024304 | 65 | 217 | 0.0 | 0.0 | 0.11 | 0.16 | 0.16 | 86 | 1008.3 |
| 20260507023304 | 65 | 217 | 1.0 | 3.0 | 0.11 | 0.16 | 0.16 | 86 | 1008.2 |
| 20260507022306 | 66 | 166 | 0.0 | 1.0 | 0.10 | 0.15 | 0.15 | 86 | 1008.4 |
| 20260507021804 | 66 | 196 | 0.0 | 1.0 | 0.10 | 0.15 | 0.15 | 85 | 1008.5 |
| 20260507021305 | 66 | 196 | 0.0 | 1.0 | 0.09 | 0.14 | 0.14 | 85 | 1008.2 |
| 20260507020804 | 66 | 206 | 1.0 | 3.0 | 0.07 | 0.12 | 0.12 | 84 | 1008.4 |
| 20260507020305 | 66 | 209 | 0.0 | 1.0 | 0.06 | 0.11 | 0.11 | 84 | 1008.5 |
| 20260507015803 | 66 | 212 | 0.0 | 3.0 | 0.04 | 0.09 | 0.09 | 83 | 1008.5 |
| 20260507015306 | 66 | 204 | 0.0 | 1.0 | 0.01 | 0.06 | 0.06 | 82 | 1008.4 |
| 20260507014804 | 66 | 186 | 1.0 | 3.0 | 0.00 | 0.05 | 0.05 | 82 | 1008.3 |
| 20260507013805 | 66 | 188 | 1.0 | 2.0 | 0.00 | 0.05 | 0.05 | 82 | 1008.2 |